sensor_id;sensor_type;location;lat;lon;timestamp;P1;durP1;ratioP1;P2;durP2;ratioP2
44456;SDS011;30159;49.316;8.558;2022-09-27T00:00:25;1.00;;;0.90;;
44456;SDS011;30159;49.316;8.558;2022-09-27T00:02:52;1.00;;;0.90;;
44456;SDS011;30159;49.316;8.558;2022-09-27T00:05:18;0.80;;;0.80;;
44456;SDS011;30159;49.316;8.558;2022-09-27T00:07:45;1.00;;;0.90;;
44456;SDS011;30159;49.316;8.558;2022-09-27T00:10:12;1.57;;;0.90;;
44456;SDS011;30159;49.316;8.558;2022-09-27T00:12:39;1.30;;;1.20;;
44456;SDS011;30159;49.316;8.558;2022-09-27T00:15:08;1.00;;;0.90;;
44456;SDS011;30159;49.316;8.558;2022-09-27T00:17:35;1.03;;;0.93;;
44456;SDS011;30159;49.316;8.558;2022-09-27T00:20:02;1.20;;;1.10;;
44456;SDS011;30159;49.316;8.558;2022-09-27T00:22:31;1.37;;;1.07;;
44456;SDS011;30159;49.316;8.558;2022-09-27T00:24:57;1.00;;;0.90;;
44456;SDS011;30159;49.316;8.558;2022-09-27T00:27:24;1.10;;;1.00;;
44456;SDS011;30159;49.316;8.558;2022-09-27T00:29:51;3.90;;;0.90;;
44456;SDS011;30159;49.316;8.558;2022-09-27T00:32:19;1.00;;;0.90;;
44456;SDS011;30159;49.316;8.558;2022-09-27T00:34:46;1.00;;;0.90;;
44456;SDS011;30159;49.316;8.558;2022-09-27T00:37:12;1.00;;;0.90;;
44456;SDS011;30159;49.316;8.558;2022-09-27T00:39:39;1.00;;;0.90;;
44456;SDS011;30159;49.316;8.558;2022-09-27T00:42:07;1.63;;;0.87;;
44456;SDS011;30159;49.316;8.558;2022-09-27T00:47:41;1.00;;;0.90;;
44456;SDS011;30159;49.316;8.558;2022-09-27T00:50:21;1.10;;;1.00;;
44456;SDS011;30159;49.316;8.558;2022-09-27T00:52:54;1.80;;;1.10;;
44456;SDS011;30159;49.316;8.558;2022-09-27T00:55:27;1.00;;;0.90;;
44456;SDS011;30159;49.316;8.558;2022-09-27T00:57:57;0.87;;;0.80;;
44456;SDS011;30159;49.316;8.558;2022-09-27T01:00:24;1.10;;;0.90;;
44456;SDS011;30159;49.316;8.558;2022-09-27T01:02:53;1.00;;;0.90;;
44456;SDS011;30159;49.316;8.558;2022-09-27T01:05:22;1.03;;;0.87;;
44456;SDS011;30159;49.316;8.558;2022-09-27T01:07:50;3.43;;;0.87;;
44456;SDS011;30159;49.316;8.558;2022-09-27T01:10:20;1.00;;;0.80;;
44456;SDS011;30159;49.316;8.558;2022-09-27T01:12:53;3.30;;;0.93;;
44456;SDS011;30159;49.316;8.558;2022-09-27T01:15:31;1.00;;;0.90;;
44456;SDS011;30159;49.316;8.558;2022-09-27T01:18:12;0.90;;;0.80;;
44456;SDS011;30159;49.316;8.558;2022-09-27T01:24:04;1.50;;;1.10;;
44456;SDS011;30159;49.316;8.558;2022-09-27T01:26:45;1.20;;;1.10;;
44456;SDS011;30159;49.316;8.558;2022-09-27T01:29:33;1.63;;;1.10;;
44456;SDS011;30159;49.316;8.558;2022-09-27T01:32:14;1.53;;;1.00;;
44456;SDS011;30159;49.316;8.558;2022-09-27T01:34:51;1.47;;;0.90;;
44456;SDS011;30159;49.316;8.558;2022-09-27T01:37:27;1.10;;;1.00;;
44456;SDS011;30159;49.316;8.558;2022-09-27T01:40:01;1.10;;;1.00;;
44456;SDS011;30159;49.316;8.558;2022-09-27T01:42:36;3.70;;;1.10;;
44456;SDS011;30159;49.316;8.558;2022-09-27T01:45:08;0.90;;;0.80;;
44456;SDS011;30159;49.316;8.558;2022-09-27T01:47:41;1.47;;;1.00;;
44456;SDS011;30159;49.316;8.558;2022-09-27T01:50:12;0.97;;;0.90;;
44456;SDS011;30159;49.316;8.558;2022-09-27T01:52:46;1.00;;;0.90;;
44456;SDS011;30159;49.316;8.558;2022-09-27T01:55:16;1.10;;;0.90;;
44456;SDS011;30159;49.316;8.558;2022-09-27T01:57:49;1.10;;;0.90;;
44456;SDS011;30159;49.316;8.558;2022-09-27T02:00:22;1.10;;;1.00;;
44456;SDS011;30159;49.316;8.558;2022-09-27T02:02:51;2.00;;;0.90;;
44456;SDS011;30159;49.316;8.558;2022-09-27T02:05:23;1.20;;;0.97;;
44456;SDS011;30159;49.316;8.558;2022-09-27T02:07:59;1.00;;;0.83;;
44456;SDS011;30159;49.316;8.558;2022-09-27T02:10:32;1.00;;;0.90;;
44456;SDS011;30159;49.316;8.558;2022-09-27T02:13:04;0.80;;;0.77;;
44456;SDS011;30159;49.316;8.558;2022-09-27T02:15:40;1.10;;;1.00;;
44456;SDS011;30159;49.316;8.558;2022-09-27T02:18:21;1.00;;;0.90;;
44456;SDS011;30159;49.316;8.558;2022-09-27T02:20:54;1.60;;;1.00;;
44456;SDS011;30159;49.316;8.558;2022-09-27T02:23:24;2.20;;;1.00;;
44456;SDS011;30159;49.316;8.558;2022-09-27T02:26:00;3.03;;;0.97;;
44456;SDS011;30159;49.316;8.558;2022-09-27T02:28:32;2.80;;;1.13;;
44456;SDS011;30159;49.316;8.558;2022-09-27T02:31:01;4.13;;;1.10;;
44456;SDS011;30159;49.316;8.558;2022-09-27T02:33:30;2.17;;;1.27;;
44456;SDS011;30159;49.316;8.558;2022-09-27T02:36:01;1.60;;;1.50;;
44456;SDS011;30159;49.316;8.558;2022-09-27T02:38:28;1.40;;;1.23;;
44456;SDS011;30159;49.316;8.558;2022-09-27T02:40:55;3.50;;;1.37;;
44456;SDS011;30159;49.316;8.558;2022-09-27T02:43:22;2.17;;;1.10;;
44456;SDS011;30159;49.316;8.558;2022-09-27T02:45:53;4.83;;;1.33;;
44456;SDS011;30159;49.316;8.558;2022-09-27T02:48:38;1.37;;;1.27;;
44456;SDS011;30159;49.316;8.558;2022-09-27T02:51:17;1.13;;;1.00;;
44456;SDS011;30159;49.316;8.558;2022-09-27T02:53:59;6.17;;;1.10;;
44456;SDS011;30159;49.316;8.558;2022-09-27T02:56:39;2.63;;;1.50;;
44456;SDS011;30159;49.316;8.558;2022-09-27T02:59:15;2.40;;;1.40;;
44456;SDS011;30159;49.316;8.558;2022-09-27T03:01:55;1.40;;;1.30;;
44456;SDS011;30159;49.316;8.558;2022-09-27T03:04:30;2.40;;;1.10;;
44456;SDS011;30159;49.316;8.558;2022-09-27T03:07:00;3.20;;;1.40;;
44456;SDS011;30159;49.316;8.558;2022-09-27T03:09:28;2.93;;;1.30;;
44456;SDS011;30159;49.316;8.558;2022-09-27T03:12:05;1.80;;;1.40;;
44456;SDS011;30159;49.316;8.558;2022-09-27T03:14:32;3.13;;;1.33;;
44456;SDS011;30159;49.316;8.558;2022-09-27T03:16:59;2.10;;;1.33;;
44456;SDS011;30159;49.316;8.558;2022-09-27T03:19:29;1.33;;;1.23;;
44456;SDS011;30159;49.316;8.558;2022-09-27T03:21:55;3.33;;;1.27;;
44456;SDS011;30159;49.316;8.558;2022-09-27T03:24:22;2.43;;;1.20;;
44456;SDS011;30159;49.316;8.558;2022-09-27T03:26:49;1.30;;;1.20;;
44456;SDS011;30159;49.316;8.558;2022-09-27T03:29:16;1.47;;;1.30;;
44456;SDS011;30159;49.316;8.558;2022-09-27T03:31:42;1.47;;;1.30;;
44456;SDS011;30159;49.316;8.558;2022-09-27T03:34:09;4.77;;;1.70;;
44456;SDS011;30159;49.316;8.558;2022-09-27T03:36:37;1.63;;;1.27;;
44456;SDS011;30159;49.316;8.558;2022-09-27T03:39:04;1.93;;;1.40;;
44456;SDS011;30159;49.316;8.558;2022-09-27T03:41:30;2.30;;;1.40;;
44456;SDS011;30159;49.316;8.558;2022-09-27T03:43:57;7.20;;;1.80;;
44456;SDS011;30159;49.316;8.558;2022-09-27T03:46:24;2.83;;;1.40;;
44456;SDS011;30159;49.316;8.558;2022-09-27T03:48:51;2.10;;;1.30;;
44456;SDS011;30159;49.316;8.558;2022-09-27T03:51:17;2.40;;;1.53;;
44456;SDS011;30159;49.316;8.558;2022-09-27T03:53:45;4.70;;;1.67;;
44456;SDS011;30159;49.316;8.558;2022-09-27T03:56:12;4.93;;;2.00;;
44456;SDS011;30159;49.316;8.558;2022-09-27T03:58:39;1.60;;;1.33;;
44456;SDS011;30159;49.316;8.558;2022-09-27T04:01:06;1.93;;;1.70;;
44456;SDS011;30159;49.316;8.558;2022-09-27T04:03:33;2.17;;;1.70;;
44456;SDS011;30159;49.316;8.558;2022-09-27T04:06:00;2.50;;;1.90;;
44456;SDS011;30159;49.316;8.558;2022-09-27T04:08:27;1.97;;;1.60;;
44456;SDS011;30159;49.316;8.558;2022-09-27T04:10:55;4.77;;;2.07;;
44456;SDS011;30159;49.316;8.558;2022-09-27T04:13:22;2.23;;;1.50;;
44456;SDS011;30159;49.316;8.558;2022-09-27T04:15:49;1.97;;;1.80;;
44456;SDS011;30159;49.316;8.558;2022-09-27T04:18:15;2.93;;;1.33;;
44456;SDS011;30159;49.316;8.558;2022-09-27T04:20:42;2.50;;;2.10;;
44456;SDS011;30159;49.316;8.558;2022-09-27T04:23:08;3.17;;;1.40;;
44456;SDS011;30159;49.316;8.558;2022-09-27T04:25:35;2.37;;;1.63;;
44456;SDS011;30159;49.316;8.558;2022-09-27T04:28:05;1.47;;;1.37;;
44456;SDS011;30159;49.316;8.558;2022-09-27T04:30:31;1.90;;;1.60;;
44456;SDS011;30159;49.316;8.558;2022-09-27T04:32:58;3.80;;;1.43;;
44456;SDS011;30159;49.316;8.558;2022-09-27T04:35:25;1.40;;;1.30;;
44456;SDS011;30159;49.316;8.558;2022-09-27T04:38:09;3.13;;;1.53;;
44456;SDS011;30159;49.316;8.558;2022-09-27T04:40:35;2.27;;;1.20;;
44456;SDS011;30159;49.316;8.558;2022-09-27T04:43:02;1.80;;;1.53;;
44456;SDS011;30159;49.316;8.558;2022-09-27T04:45:30;1.53;;;1.20;;
44456;SDS011;30159;49.316;8.558;2022-09-27T04:47:57;1.53;;;1.43;;
44456;SDS011;30159;49.316;8.558;2022-09-27T04:50:23;1.30;;;1.20;;
44456;SDS011;30159;49.316;8.558;2022-09-27T04:52:50;1.50;;;1.40;;
44456;SDS011;30159;49.316;8.558;2022-09-27T04:55:18;1.43;;;1.33;;
44456;SDS011;30159;49.316;8.558;2022-09-27T04:57:46;1.80;;;1.70;;
44456;SDS011;30159;49.316;8.558;2022-09-27T05:00:13;1.77;;;1.47;;
44456;SDS011;30159;49.316;8.558;2022-09-27T05:02:42;2.40;;;1.50;;
44456;SDS011;30159;49.316;8.558;2022-09-27T05:05:09;2.30;;;1.60;;
44456;SDS011;30159;49.316;8.558;2022-09-27T05:07:36;1.40;;;1.30;;
44456;SDS011;30159;49.316;8.558;2022-09-27T05:10:03;1.50;;;1.20;;
44456;SDS011;30159;49.316;8.558;2022-09-27T05:12:31;1.40;;;1.30;;
44456;SDS011;30159;49.316;8.558;2022-09-27T05:14:57;1.20;;;1.10;;
44456;SDS011;30159;49.316;8.558;2022-09-27T05:17:24;1.07;;;0.97;;
44456;SDS011;30159;49.316;8.558;2022-09-27T05:19:52;2.60;;;1.10;;
44456;SDS011;30159;49.316;8.558;2022-09-27T05:22:18;1.20;;;1.07;;
44456;SDS011;30159;49.316;8.558;2022-09-27T05:24:45;1.30;;;1.13;;
44456;SDS011;30159;49.316;8.558;2022-09-27T05:27:12;1.17;;;1.07;;
44456;SDS011;30159;49.316;8.558;2022-09-27T05:29:42;1.87;;;1.20;;
44456;SDS011;30159;49.316;8.558;2022-09-27T05:32:09;1.10;;;1.00;;
44456;SDS011;30159;49.316;8.558;2022-09-27T05:34:36;4.70;;;1.00;;
44456;SDS011;30159;49.316;8.558;2022-09-27T05:37:04;0.97;;;0.87;;
44456;SDS011;30159;49.316;8.558;2022-09-27T05:39:31;0.90;;;0.80;;
44456;SDS011;30159;49.316;8.558;2022-09-27T05:41:57;0.80;;;0.80;;
44456;SDS011;30159;49.316;8.558;2022-09-27T05:44:24;0.90;;;0.83;;
44456;SDS011;30159;49.316;8.558;2022-09-27T05:46:51;1.30;;;1.10;;
44456;SDS011;30159;49.316;8.558;2022-09-27T05:49:17;2.47;;;2.37;;
44456;SDS011;30159;49.316;8.558;2022-09-27T05:51:44;1.43;;;1.33;;
44456;SDS011;30159;49.316;8.558;2022-09-27T05:54:12;1.30;;;1.20;;
44456;SDS011;30159;49.316;8.558;2022-09-27T05:56:39;1.50;;;1.40;;
44456;SDS011;30159;49.316;8.558;2022-09-27T05:59:06;1.20;;;1.10;;
44456;SDS011;30159;49.316;8.558;2022-09-27T06:01:32;3.00;;;1.20;;
44456;SDS011;30159;49.316;8.558;2022-09-27T06:03:59;2.57;;;1.10;;
44456;SDS011;30159;49.316;8.558;2022-09-27T06:06:27;1.07;;;0.97;;
44456;SDS011;30159;49.316;8.558;2022-09-27T06:08:54;3.70;;;1.03;;
44456;SDS011;30159;49.316;8.558;2022-09-27T06:11:22;1.50;;;0.90;;
44456;SDS011;30159;49.316;8.558;2022-09-27T06:13:51;5.23;;;1.20;;
44456;SDS011;30159;49.316;8.558;2022-09-27T06:16:18;1.17;;;1.07;;
44456;SDS011;30159;49.316;8.558;2022-09-27T06:18:44;1.30;;;1.20;;
44456;SDS011;30159;49.316;8.558;2022-09-27T06:21:11;1.50;;;1.40;;
44456;SDS011;30159;49.316;8.558;2022-09-27T06:23:38;1.83;;;1.73;;
44456;SDS011;30159;49.316;8.558;2022-09-27T06:26:05;2.03;;;1.90;;
44456;SDS011;30159;49.316;8.558;2022-09-27T06:28:34;2.73;;;1.27;;
44456;SDS011;30159;49.316;8.558;2022-09-27T06:31:00;1.47;;;1.37;;
44456;SDS011;30159;49.316;8.558;2022-09-27T06:33:27;1.40;;;1.30;;
44456;SDS011;30159;49.316;8.558;2022-09-27T06:35:54;3.60;;;1.30;;
44456;SDS011;30159;49.316;8.558;2022-09-27T06:38:20;1.40;;;1.30;;
44456;SDS011;30159;49.316;8.558;2022-09-27T06:40:48;1.70;;;1.13;;
44456;SDS011;30159;49.316;8.558;2022-09-27T06:43:16;1.50;;;1.40;;
44456;SDS011;30159;49.316;8.558;2022-09-27T06:45:45;1.40;;;1.30;;
44456;SDS011;30159;49.316;8.558;2022-09-27T06:48:12;1.30;;;1.20;;
44456;SDS011;30159;49.316;8.558;2022-09-27T06:50:41;2.13;;;1.50;;
44456;SDS011;30159;49.316;8.558;2022-09-27T06:53:10;1.37;;;1.10;;
44456;SDS011;30159;49.316;8.558;2022-09-27T06:55:37;1.40;;;1.20;;
44456;SDS011;30159;49.316;8.558;2022-09-27T06:58:05;1.40;;;1.30;;
44456;SDS011;30159;49.316;8.558;2022-09-27T07:00:51;1.63;;;1.53;;
44456;SDS011;30159;49.316;8.558;2022-09-27T07:03:19;1.30;;;1.20;;
44456;SDS011;30159;49.316;8.558;2022-09-27T07:05:53;1.27;;;1.17;;
44456;SDS011;30159;49.316;8.558;2022-09-27T07:08:21;1.53;;;1.20;;
44456;SDS011;30159;49.316;8.558;2022-09-27T07:10:52;1.57;;;1.47;;
44456;SDS011;30159;49.316;8.558;2022-09-27T07:13:19;1.87;;;1.20;;
44456;SDS011;30159;49.316;8.558;2022-09-27T07:15:46;1.00;;;0.90;;
44456;SDS011;30159;49.316;8.558;2022-09-27T07:18:14;1.10;;;1.00;;
44456;SDS011;30159;49.316;8.558;2022-09-27T07:20:41;1.10;;;1.00;;
44456;SDS011;30159;49.316;8.558;2022-09-27T07:23:09;2.67;;;1.23;;
44456;SDS011;30159;49.316;8.558;2022-09-27T07:25:36;1.00;;;0.90;;
44456;SDS011;30159;49.316;8.558;2022-09-27T07:28:03;1.03;;;0.93;;
44456;SDS011;30159;49.316;8.558;2022-09-27T07:30:32;0.83;;;0.83;;
44456;SDS011;30159;49.316;8.558;2022-09-27T07:32:59;1.33;;;0.90;;
44456;SDS011;30159;49.316;8.558;2022-09-27T07:35:29;1.00;;;0.90;;
44456;SDS011;30159;49.316;8.558;2022-09-27T07:37:56;0.83;;;0.80;;
44456;SDS011;30159;49.316;8.558;2022-09-27T07:40:23;1.00;;;0.90;;
44456;SDS011;30159;49.316;8.558;2022-09-27T07:42:53;1.10;;;0.90;;
44456;SDS011;30159;49.316;8.558;2022-09-27T07:45:20;0.80;;;0.80;;
44456;SDS011;30159;49.316;8.558;2022-09-27T07:47:47;6.53;;;1.10;;
44456;SDS011;30159;49.316;8.558;2022-09-27T07:50:14;1.23;;;0.90;;
44456;SDS011;30159;49.316;8.558;2022-09-27T07:52:42;1.03;;;0.83;;
44456;SDS011;30159;49.316;8.558;2022-09-27T07:55:10;1.00;;;0.80;;
44456;SDS011;30159;49.316;8.558;2022-09-27T07:57:38;1.00;;;0.90;;
44456;SDS011;30159;49.316;8.558;2022-09-27T08:00:06;0.83;;;0.83;;
44456;SDS011;30159;49.316;8.558;2022-09-27T08:02:35;0.90;;;0.90;;
44456;SDS011;30159;49.316;8.558;2022-09-27T08:05:02;1.00;;;0.80;;
44456;SDS011;30159;49.316;8.558;2022-09-27T08:07:29;0.97;;;0.70;;
44456;SDS011;30159;49.316;8.558;2022-09-27T08:09:58;1.13;;;0.90;;
44456;SDS011;30159;49.316;8.558;2022-09-27T08:12:25;1.10;;;0.70;;
44456;SDS011;30159;49.316;8.558;2022-09-27T08:14:51;0.93;;;0.83;;
44456;SDS011;30159;49.316;8.558;2022-09-27T08:17:18;1.10;;;0.93;;
44456;SDS011;30159;49.316;8.558;2022-09-27T08:19:45;1.37;;;0.80;;
44456;SDS011;30159;49.316;8.558;2022-09-27T08:22:13;1.23;;;1.13;;
44456;SDS011;30159;49.316;8.558;2022-09-27T08:24:41;2.23;;;2.13;;
44456;SDS011;30159;49.316;8.558;2022-09-27T08:27:09;1.27;;;1.17;;
44456;SDS011;30159;49.316;8.558;2022-09-27T08:29:37;1.10;;;1.00;;
44456;SDS011;30159;49.316;8.558;2022-09-27T08:32:05;1.80;;;1.03;;
44456;SDS011;30159;49.316;8.558;2022-09-27T08:34:32;4.67;;;1.90;;
44456;SDS011;30159;49.316;8.558;2022-09-27T08:36:59;1.57;;;1.10;;
44456;SDS011;30159;49.316;8.558;2022-09-27T08:39:25;1.20;;;1.10;;
44456;SDS011;30159;49.316;8.558;2022-09-27T08:41:53;1.73;;;1.20;;
44456;SDS011;30159;49.316;8.558;2022-09-27T08:44:31;1.00;;;0.90;;
44456;SDS011;30159;49.316;8.558;2022-09-27T08:47:05;1.17;;;1.07;;
44456;SDS011;30159;49.316;8.558;2022-09-27T08:49:40;1.40;;;1.10;;
44456;SDS011;30159;49.316;8.558;2022-09-27T08:52:11;1.57;;;1.47;;
44456;SDS011;30159;49.316;8.558;2022-09-27T08:54:44;1.33;;;1.10;;
44456;SDS011;30159;49.316;8.558;2022-09-27T08:57:12;1.30;;;1.20;;
44456;SDS011;30159;49.316;8.558;2022-09-27T08:59:42;1.37;;;1.20;;
44456;SDS011;30159;49.316;8.558;2022-09-27T09:02:16;1.30;;;1.20;;
44456;SDS011;30159;49.316;8.558;2022-09-27T09:04:45;1.10;;;1.00;;
44456;SDS011;30159;49.316;8.558;2022-09-27T09:07:19;1.20;;;1.10;;
44456;SDS011;30159;49.316;8.558;2022-09-27T09:09:56;1.30;;;1.20;;
44456;SDS011;30159;49.316;8.558;2022-09-27T09:12:34;1.80;;;1.10;;
44456;SDS011;30159;49.316;8.558;2022-09-27T09:15:17;1.30;;;1.20;;
44456;SDS011;30159;49.316;8.558;2022-09-27T09:17:56;1.20;;;1.10;;
44456;SDS011;30159;49.316;8.558;2022-09-27T09:20:37;1.57;;;1.17;;
44456;SDS011;30159;49.316;8.558;2022-09-27T09:23:17;3.13;;;1.60;;
44456;SDS011;30159;49.316;8.558;2022-09-27T09:26:02;1.67;;;1.20;;
44456;SDS011;30159;49.316;8.558;2022-09-27T09:28:38;1.70;;;1.30;;
44456;SDS011;30159;49.316;8.558;2022-09-27T09:31:20;2.80;;;1.40;;
44456;SDS011;30159;49.316;8.558;2022-09-27T09:33:54;1.10;;;1.00;;
44456;SDS011;30159;49.316;8.558;2022-09-27T09:36:26;1.33;;;1.23;;
44456;SDS011;30159;49.316;8.558;2022-09-27T09:38:58;1.40;;;1.20;;
44456;SDS011;30159;49.316;8.558;2022-09-27T09:41:30;2.57;;;1.40;;
44456;SDS011;30159;49.316;8.558;2022-09-27T09:44:04;2.30;;;1.70;;
44456;SDS011;30159;49.316;8.558;2022-09-27T09:46:41;1.83;;;1.50;;
44456;SDS011;30159;49.316;8.558;2022-09-27T09:49:13;4.00;;;1.77;;
44456;SDS011;30159;49.316;8.558;2022-09-27T09:51:44;1.50;;;1.40;;
44456;SDS011;30159;49.316;8.558;2022-09-27T09:54:14;1.90;;;1.67;;
44456;SDS011;30159;49.316;8.558;2022-09-27T09:56:47;1.40;;;1.30;;
44456;SDS011;30159;49.316;8.558;2022-09-27T09:59:18;1.80;;;1.70;;
44456;SDS011;30159;49.316;8.558;2022-09-27T10:01:53;3.43;;;1.70;;
44456;SDS011;30159;49.316;8.558;2022-09-27T10:04:24;1.83;;;1.73;;
44456;SDS011;30159;49.316;8.558;2022-09-27T10:06:53;1.77;;;1.60;;
44456;SDS011;30159;49.316;8.558;2022-09-27T10:09:23;2.00;;;1.70;;
44456;SDS011;30159;49.316;8.558;2022-09-27T10:11:51;1.60;;;1.50;;
44456;SDS011;30159;49.316;8.558;2022-09-27T10:14:19;2.90;;;1.80;;
44456;SDS011;30159;49.316;8.558;2022-09-27T10:16:47;2.23;;;2.13;;
44456;SDS011;30159;49.316;8.558;2022-09-27T10:19:17;1.80;;;1.70;;
44456;SDS011;30159;49.316;8.558;2022-09-27T10:21:50;1.70;;;1.60;;
44456;SDS011;30159;49.316;8.558;2022-09-27T10:24:18;2.37;;;1.60;;
44456;SDS011;30159;49.316;8.558;2022-09-27T10:26:44;1.73;;;1.37;;
44456;SDS011;30159;49.316;8.558;2022-09-27T10:29:21;1.20;;;1.10;;
44456;SDS011;30159;49.316;8.558;2022-09-27T10:31:49;1.33;;;1.23;;
44456;SDS011;30159;49.316;8.558;2022-09-27T10:34:19;1.20;;;1.10;;
44456;SDS011;30159;49.316;8.558;2022-09-27T10:37:02;1.00;;;0.90;;
44456;SDS011;30159;49.316;8.558;2022-09-27T10:39:41;2.20;;;0.70;;
44456;SDS011;30159;49.316;8.558;2022-09-27T10:42:18;0.90;;;0.80;;
44456;SDS011;30159;49.316;8.558;2022-09-27T10:44:55;0.87;;;0.77;;
44456;SDS011;30159;49.316;8.558;2022-09-27T10:47:22;0.70;;;0.70;;
44456;SDS011;30159;49.316;8.558;2022-09-27T10:49:52;1.00;;;0.90;;
44456;SDS011;30159;49.316;8.558;2022-09-27T10:52:29;1.00;;;0.90;;
44456;SDS011;30159;49.316;8.558;2022-09-27T10:54:56;1.10;;;1.00;;
44456;SDS011;30159;49.316;8.558;2022-09-27T10:57:25;1.03;;;0.93;;
44456;SDS011;30159;49.316;8.558;2022-09-27T10:59:54;0.80;;;0.70;;
44456;SDS011;30159;49.316;8.558;2022-09-27T11:02:23;2.80;;;0.87;;
44456;SDS011;30159;49.316;8.558;2022-09-27T11:05:08;1.03;;;0.93;;
44456;SDS011;30159;49.316;8.558;2022-09-27T11:07:46;2.40;;;1.00;;
44456;SDS011;30159;49.316;8.558;2022-09-27T11:10:20;1.43;;;1.10;;
44456;SDS011;30159;49.316;8.558;2022-09-27T11:13:06;1.27;;;1.17;;
44456;SDS011;30159;49.316;8.558;2022-09-27T11:15:41;2.23;;;1.13;;
44456;SDS011;30159;49.316;8.558;2022-09-27T11:18:24;1.20;;;1.10;;
44456;SDS011;30159;49.316;8.558;2022-09-27T11:21:00;1.10;;;0.90;;
44456;SDS011;30159;49.316;8.558;2022-09-27T11:23:41;1.70;;;0.87;;
44456;SDS011;30159;49.316;8.558;2022-09-27T11:26:24;1.40;;;1.30;;
44456;SDS011;30159;49.316;8.558;2022-09-27T11:28:59;1.40;;;1.30;;
44456;SDS011;30159;49.316;8.558;2022-09-27T11:31:39;1.20;;;1.10;;
44456;SDS011;30159;49.316;8.558;2022-09-27T11:34:21;2.70;;;1.30;;
44456;SDS011;30159;49.316;8.558;2022-09-27T11:37:14;1.40;;;1.30;;
44456;SDS011;30159;49.316;8.558;2022-09-27T11:39:50;1.30;;;1.20;;
44456;SDS011;30159;49.316;8.558;2022-09-27T11:42:31;1.40;;;1.10;;
44456;SDS011;30159;49.316;8.558;2022-09-27T11:45:17;1.30;;;1.20;;
44456;SDS011;30159;49.316;8.558;2022-09-27T11:47:54;1.30;;;1.20;;
44456;SDS011;30159;49.316;8.558;2022-09-27T11:53:30;1.67;;;1.40;;
44456;SDS011;30159;49.316;8.558;2022-09-27T11:56:19;1.50;;;1.27;;
44456;SDS011;30159;49.316;8.558;2022-09-27T11:59:00;1.30;;;1.20;;
44456;SDS011;30159;49.316;8.558;2022-09-27T12:01:38;3.40;;;1.50;;
44456;SDS011;30159;49.316;8.558;2022-09-27T12:07:10;1.30;;;1.20;;
44456;SDS011;30159;49.316;8.558;2022-09-27T12:09:46;1.27;;;1.17;;
44456;SDS011;30159;49.316;8.558;2022-09-27T12:12:16;1.40;;;1.00;;
44456;SDS011;30159;49.316;8.558;2022-09-27T12:14:47;1.40;;;1.30;;
44456;SDS011;30159;49.316;8.558;2022-09-27T12:17:17;1.17;;;1.00;;
44456;SDS011;30159;49.316;8.558;2022-09-27T12:19:46;1.10;;;1.00;;
44456;SDS011;30159;49.316;8.558;2022-09-27T12:22:18;1.67;;;1.10;;
44456;SDS011;30159;49.316;8.558;2022-09-27T12:24:48;1.20;;;1.07;;
44456;SDS011;30159;49.316;8.558;2022-09-27T12:27:15;1.00;;;0.90;;
44456;SDS011;30159;49.316;8.558;2022-09-27T12:29:47;3.10;;;1.10;;
44456;SDS011;30159;49.316;8.558;2022-09-27T12:32:16;1.00;;;0.90;;
44456;SDS011;30159;49.316;8.558;2022-09-27T12:34:49;0.90;;;0.90;;
44456;SDS011;30159;49.316;8.558;2022-09-27T12:37:20;2.40;;;0.80;;
44456;SDS011;30159;49.316;8.558;2022-09-27T12:39:52;1.20;;;0.80;;
44456;SDS011;30159;49.316;8.558;2022-09-27T12:42:25;0.90;;;0.90;;
44456;SDS011;30159;49.316;8.558;2022-09-27T12:44:57;1.00;;;0.77;;
44456;SDS011;30159;49.316;8.558;2022-09-27T12:47:27;1.17;;;0.80;;
44456;SDS011;30159;49.316;8.558;2022-09-27T12:50:17;0.90;;;0.73;;
44456;SDS011;30159;49.316;8.558;2022-09-27T12:52:55;1.00;;;0.90;;
44456;SDS011;30159;49.316;8.558;2022-09-27T12:55:34;0.90;;;0.70;;
44456;SDS011;30159;49.316;8.558;2022-09-27T12:58:17;0.90;;;0.60;;
44456;SDS011;30159;49.316;8.558;2022-09-27T13:01:02;0.73;;;0.67;;
44456;SDS011;30159;49.316;8.558;2022-09-27T13:03:48;0.80;;;0.67;;
44456;SDS011;30159;49.316;8.558;2022-09-27T13:06:37;1.00;;;0.80;;
44456;SDS011;30159;49.316;8.558;2022-09-27T13:09:26;0.80;;;0.70;;
44456;SDS011;30159;49.316;8.558;2022-09-27T13:12:11;2.10;;;0.87;;
44456;SDS011;30159;49.316;8.558;2022-09-27T13:14:45;0.70;;;0.60;;
44456;SDS011;30159;49.316;8.558;2022-09-27T13:17:32;0.70;;;0.60;;
44456;SDS011;30159;49.316;8.558;2022-09-27T13:26:19;1.00;;;0.77;;
44456;SDS011;30159;49.316;8.558;2022-09-27T13:28:58;0.80;;;0.70;;
44456;SDS011;30159;49.316;8.558;2022-09-27T13:34:36;0.70;;;0.63;;
44456;SDS011;30159;49.316;8.558;2022-09-27T13:40:15;0.77;;;0.70;;
44456;SDS011;30159;49.316;8.558;2022-09-27T13:42:49;0.67;;;0.60;;
44456;SDS011;30159;49.316;8.558;2022-09-27T13:45:29;0.70;;;0.60;;
44456;SDS011;30159;49.316;8.558;2022-09-27T13:48:06;1.47;;;0.60;;
44456;SDS011;30159;49.316;8.558;2022-09-27T13:50:37;2.00;;;0.60;;
44456;SDS011;30159;49.316;8.558;2022-09-27T13:53:23;0.80;;;0.67;;
44456;SDS011;30159;49.316;8.558;2022-09-27T13:55:55;0.60;;;0.60;;
44456;SDS011;30159;49.316;8.558;2022-09-27T14:01:21;1.00;;;0.63;;
44456;SDS011;30159;49.316;8.558;2022-09-27T14:03:54;1.10;;;0.80;;
44456;SDS011;30159;49.316;8.558;2022-09-27T14:06:25;0.80;;;0.60;;
44456;SDS011;30159;49.316;8.558;2022-09-27T14:08:56;1.20;;;0.70;;
44456;SDS011;30159;49.316;8.558;2022-09-27T14:11:24;0.90;;;0.60;;
44456;SDS011;30159;49.316;8.558;2022-09-27T14:13:53;0.60;;;0.50;;
44456;SDS011;30159;49.316;8.558;2022-09-27T14:16:23;2.27;;;0.60;;
44456;SDS011;30159;49.316;8.558;2022-09-27T14:18:54;0.93;;;0.70;;
44456;SDS011;30159;49.316;8.558;2022-09-27T14:21:27;0.63;;;0.40;;
44456;SDS011;30159;49.316;8.558;2022-09-27T14:26:46;0.70;;;0.60;;
44456;SDS011;30159;49.316;8.558;2022-09-27T14:29:14;0.80;;;0.60;;
44456;SDS011;30159;49.316;8.558;2022-09-27T14:31:43;0.70;;;0.50;;
44456;SDS011;30159;49.316;8.558;2022-09-27T14:34:13;1.00;;;0.70;;
44456;SDS011;30159;49.316;8.558;2022-09-27T14:36:42;1.00;;;0.60;;
44456;SDS011;30159;49.316;8.558;2022-09-27T14:39:28;0.67;;;0.50;;
44456;SDS011;30159;49.316;8.558;2022-09-27T14:41:57;0.70;;;0.60;;
44456;SDS011;30159;49.316;8.558;2022-09-27T14:44:24;0.77;;;0.60;;
44456;SDS011;30159;49.316;8.558;2022-09-27T14:49:44;0.80;;;0.60;;
44456;SDS011;30159;49.316;8.558;2022-09-27T14:52:13;0.80;;;0.70;;
44456;SDS011;30159;49.316;8.558;2022-09-27T14:54:42;0.77;;;0.67;;
44456;SDS011;30159;49.316;8.558;2022-09-27T14:57:12;0.70;;;0.60;;
44456;SDS011;30159;49.316;8.558;2022-09-27T14:59:42;0.80;;;0.60;;
44456;SDS011;30159;49.316;8.558;2022-09-27T15:02:16;0.70;;;0.60;;
44456;SDS011;30159;49.316;8.558;2022-09-27T15:04:46;0.80;;;0.60;;
44456;SDS011;30159;49.316;8.558;2022-09-27T15:07:15;0.70;;;0.60;;
44456;SDS011;30159;49.316;8.558;2022-09-27T15:09:43;0.80;;;0.70;;
44456;SDS011;30159;49.316;8.558;2022-09-27T15:12:10;0.70;;;0.60;;
44456;SDS011;30159;49.316;8.558;2022-09-27T15:14:38;0.70;;;0.60;;
44456;SDS011;30159;49.316;8.558;2022-09-27T15:17:12;0.60;;;0.60;;
44456;SDS011;30159;49.316;8.558;2022-09-27T15:19:55;2.03;;;0.77;;
44456;SDS011;30159;49.316;8.558;2022-09-27T15:22:30;0.83;;;0.67;;
44456;SDS011;30159;49.316;8.558;2022-09-27T15:25:03;0.80;;;0.70;;
44456;SDS011;30159;49.316;8.558;2022-09-27T15:27:44;1.00;;;0.80;;
44456;SDS011;30159;49.316;8.558;2022-09-27T15:30:15;0.80;;;0.60;;
44456;SDS011;30159;49.316;8.558;2022-09-27T15:32:47;0.60;;;0.50;;
44456;SDS011;30159;49.316;8.558;2022-09-27T15:35:18;0.80;;;0.70;;
44456;SDS011;30159;49.316;8.558;2022-09-27T15:37:48;1.60;;;0.70;;
44456;SDS011;30159;49.316;8.558;2022-09-27T15:40:44;0.67;;;0.57;;
44456;SDS011;30159;49.316;8.558;2022-09-27T15:43:26;0.83;;;0.53;;
44456;SDS011;30159;49.316;8.558;2022-09-27T15:45:55;0.63;;;0.57;;